Terminal Aerodrome Forecast
Issued by NWS Pueblo, CO

Home | Current Version | Previous Version | Text Only | Print | Product List | Glossary On
Versions: 1 2 3 4 5 6 7 8 9 10 11 12 13 14 15 16 17 18 19 20 21 22 23 24 25 26 27 28 29 30
000
FTUS45 KPUB 090211 AAA
TAFCOS
TAF AMD
KCOS 090211Z 0902/0924 16008KT 5SM -SN BR SCT015 OVC025
     FM090400 14008KT 5SM -SN BR SCT020 BKN030
     FM090600 06006KT P6SM SCT030 BKN050
     FM090800 01006KT P6SM SCT070 BKN250
     FM091800 18009KT P6SM SCT070 BKN250=

USA.gov is the U.S. government's official web portal to all federal, state and local government web resources and services.